sensor_id;sensor_type;location;lat;lon;timestamp;P1;durP1;ratioP1;P2;durP2;ratioP2
56171;SDS011;42052;41.634;-0.946;2023-03-24T00:00:01;1.15;;;0.93;;
56171;SDS011;42052;41.634;-0.946;2023-03-24T00:02:51;1.27;;;1.05;;
56171;SDS011;42052;41.634;-0.946;2023-03-24T00:05:37;1.10;;;0.93;;
56171;SDS011;42052;41.634;-0.946;2023-03-24T00:08:24;1.27;;;1.02;;
56171;SDS011;42052;41.634;-0.946;2023-03-24T00:11:14;1.40;;;0.98;;
56171;SDS011;42052;41.634;-0.946;2023-03-24T00:14:03;1.02;;;0.80;;
56171;SDS011;42052;41.634;-0.946;2023-03-24T00:16:49;1.33;;;0.90;;
56171;SDS011;42052;41.634;-0.946;2023-03-24T00:19:37;1.20;;;1.10;;
56171;SDS011;42052;41.634;-0.946;2023-03-24T00:22:24;1.20;;;0.90;;
56171;SDS011;42052;41.634;-0.946;2023-03-24T00:25:12;1.10;;;1.00;;
56171;SDS011;42052;41.634;-0.946;2023-03-24T00:28:01;1.15;;;1.00;;
56171;SDS011;42052;41.634;-0.946;2023-03-24T00:30:50;1.00;;;0.90;;
56171;SDS011;42052;41.634;-0.946;2023-03-24T00:33:36;1.33;;;1.00;;
56171;SDS011;42052;41.634;-0.946;2023-03-24T00:36:25;1.08;;;0.90;;
56171;SDS011;42052;41.634;-0.946;2023-03-24T00:39:13;1.80;;;0.93;;
56171;SDS011;42052;41.634;-0.946;2023-03-24T00:42:02;1.88;;;0.95;;
56171;SDS011;42052;41.634;-0.946;2023-03-24T00:44:48;1.00;;;0.90;;
56171;SDS011;42052;41.634;-0.946;2023-03-24T00:47:34;1.13;;;1.00;;
56171;SDS011;42052;41.634;-0.946;2023-03-24T00:50:22;0.90;;;0.85;;
56171;SDS011;42052;41.634;-0.946;2023-03-24T00:53:10;1.40;;;0.98;;
56171;SDS011;42052;41.634;-0.946;2023-03-24T00:56:00;1.40;;;1.20;;
56171;SDS011;42052;41.634;-0.946;2023-03-24T00:58:46;1.67;;;1.00;;
56171;SDS011;42052;41.634;-0.946;2023-03-24T01:01:32;1.00;;;0.90;;
56171;SDS011;42052;41.634;-0.946;2023-03-24T01:04:20;2.70;;;0.90;;
56171;SDS011;42052;41.634;-0.946;2023-03-24T01:07:08;0.80;;;0.80;;
56171;SDS011;42052;41.634;-0.946;2023-03-24T01:09:56;0.88;;;0.73;;
56171;SDS011;42052;41.634;-0.946;2023-03-24T01:12:42;1.55;;;0.90;;
56171;SDS011;42052;41.634;-0.946;2023-03-24T01:15:30;0.95;;;0.90;;
56171;SDS011;42052;41.634;-0.946;2023-03-24T01:18:19;1.38;;;1.10;;
56171;SDS011;42052;41.634;-0.946;2023-03-24T01:21:08;1.58;;;0.88;;
56171;SDS011;42052;41.634;-0.946;2023-03-24T01:23:55;0.80;;;0.80;;
56171;SDS011;42052;41.634;-0.946;2023-03-24T01:26:42;1.08;;;0.85;;
56171;SDS011;42052;41.634;-0.946;2023-03-24T01:29:28;0.80;;;0.80;;
56171;SDS011;42052;41.634;-0.946;2023-03-24T01:32:15;1.02;;;0.90;;
56171;SDS011;42052;41.634;-0.946;2023-03-24T01:35:01;0.90;;;0.82;;
56171;SDS011;42052;41.634;-0.946;2023-03-24T01:37:47;1.00;;;0.90;;
56171;SDS011;42052;41.634;-0.946;2023-03-24T01:40:34;1.00;;;0.90;;
56171;SDS011;42052;41.634;-0.946;2023-03-24T01:43:26;1.25;;;0.90;;
56171;SDS011;42052;41.634;-0.946;2023-03-24T01:49:06;0.65;;;0.65;;
56171;SDS011;42052;41.634;-0.946;2023-03-24T01:51:54;1.00;;;0.90;;
56171;SDS011;42052;41.634;-0.946;2023-03-24T01:54:45;1.17;;;1.00;;
56171;SDS011;42052;41.634;-0.946;2023-03-24T01:57:39;1.42;;;0.90;;
56171;SDS011;42052;41.634;-0.946;2023-03-24T02:00:27;1.02;;;0.80;;
56171;SDS011;42052;41.634;-0.946;2023-03-24T02:03:18;1.75;;;0.90;;
56171;SDS011;42052;41.634;-0.946;2023-03-24T02:06:07;1.08;;;0.90;;
56171;SDS011;42052;41.634;-0.946;2023-03-24T02:08:54;1.00;;;0.90;;
56171;SDS011;42052;41.634;-0.946;2023-03-24T02:11:42;0.98;;;0.82;;
56171;SDS011;42052;41.634;-0.946;2023-03-24T02:14:29;1.27;;;0.70;;
56171;SDS011;42052;41.634;-0.946;2023-03-24T02:27:01;0.88;;;0.80;;
56171;SDS011;42052;41.634;-0.946;2023-03-24T02:50:31;1.33;;;0.90;;
56171;SDS011;42052;41.634;-0.946;2023-03-24T02:56:36;0.93;;;0.70;;
56171;SDS011;42052;41.634;-0.946;2023-03-24T02:59:32;1.30;;;0.80;;
56171;SDS011;42052;41.634;-0.946;2023-03-24T03:02:22;0.65;;;0.60;;
56171;SDS011;42052;41.634;-0.946;2023-03-24T03:05:20;1.67;;;0.90;;
56171;SDS011;42052;41.634;-0.946;2023-03-24T03:08:15;0.70;;;0.70;;
56171;SDS011;42052;41.634;-0.946;2023-03-24T03:11:05;1.00;;;0.75;;
56171;SDS011;42052;41.634;-0.946;2023-03-24T03:14:00;2.05;;;0.80;;
56171;SDS011;42052;41.634;-0.946;2023-03-24T03:16:58;1.95;;;0.70;;
56171;SDS011;42052;41.634;-0.946;2023-03-24T03:19:55;0.65;;;0.60;;
56171;SDS011;42052;41.634;-0.946;2023-03-24T03:23:11;0.93;;;0.77;;
56171;SDS011;42052;41.634;-0.946;2023-03-24T03:25:59;1.38;;;0.65;;
56171;SDS011;42052;41.634;-0.946;2023-03-24T03:28:51;1.13;;;0.70;;
56171;SDS011;42052;41.634;-0.946;2023-03-24T03:31:47;1.33;;;0.70;;
56171;SDS011;42052;41.634;-0.946;2023-03-24T03:34:42;1.15;;;0.60;;
56171;SDS011;42052;41.634;-0.946;2023-03-24T03:37:35;1.75;;;0.70;;
56171;SDS011;42052;41.634;-0.946;2023-03-24T03:40:41;1.30;;;0.70;;
56171;SDS011;42052;41.634;-0.946;2023-03-24T03:43:44;0.70;;;0.60;;
56171;SDS011;42052;41.634;-0.946;2023-03-24T03:46:31;1.40;;;0.70;;
56171;SDS011;42052;41.634;-0.946;2023-03-24T03:49:19;1.00;;;0.80;;
56171;SDS011;42052;41.634;-0.946;2023-03-24T03:52:05;0.77;;;0.70;;
56171;SDS011;42052;41.634;-0.946;2023-03-24T03:54:52;0.98;;;0.80;;
56171;SDS011;42052;41.634;-0.946;2023-03-24T03:57:40;0.88;;;0.70;;
56171;SDS011;42052;41.634;-0.946;2023-03-24T04:00:28;1.23;;;0.68;;
56171;SDS011;42052;41.634;-0.946;2023-03-24T04:06:08;1.02;;;0.60;;
56171;SDS011;42052;41.634;-0.946;2023-03-24T04:34:32;1.05;;;0.60;;
56171;SDS011;42052;41.634;-0.946;2023-03-24T04:40:11;0.63;;;0.60;;
56171;SDS011;42052;41.634;-0.946;2023-03-24T04:43:00;1.20;;;0.80;;
56171;SDS011;42052;41.634;-0.946;2023-03-24T04:45:49;1.25;;;0.60;;
56171;SDS011;42052;41.634;-0.946;2023-03-24T04:48:44;2.17;;;0.52;;
56171;SDS011;42052;41.634;-0.946;2023-03-24T04:51:34;0.88;;;0.60;;
56171;SDS011;42052;41.634;-0.946;2023-03-24T04:54:21;1.13;;;0.77;;
56171;SDS011;42052;41.634;-0.946;2023-03-24T04:57:08;1.02;;;0.50;;
56171;SDS011;42052;41.634;-0.946;2023-03-24T04:59:54;1.23;;;0.70;;
56171;SDS011;42052;41.634;-0.946;2023-03-24T05:02:41;0.75;;;0.47;;
56171;SDS011;42052;41.634;-0.946;2023-03-24T05:05:29;0.95;;;0.68;;
56171;SDS011;42052;41.634;-0.946;2023-03-24T05:08:15;1.35;;;0.70;;
56171;SDS011;42052;41.634;-0.946;2023-03-24T05:11:03;1.50;;;0.60;;
56171;SDS011;42052;41.634;-0.946;2023-03-24T05:13:49;0.77;;;0.60;;
56171;SDS011;42052;41.634;-0.946;2023-03-24T05:16:35;1.40;;;0.70;;
56171;SDS011;42052;41.634;-0.946;2023-03-24T05:19:22;0.75;;;0.40;;
56171;SDS011;42052;41.634;-0.946;2023-03-24T05:22:08;0.73;;;0.60;;
56171;SDS011;42052;41.634;-0.946;2023-03-24T05:24:54;1.70;;;0.60;;
56171;SDS011;42052;41.634;-0.946;2023-03-24T05:27:40;1.35;;;0.60;;
56171;SDS011;42052;41.634;-0.946;2023-03-24T05:30:27;1.10;;;0.50;;
56171;SDS011;42052;41.634;-0.946;2023-03-24T05:33:13;0.70;;;0.50;;
56171;SDS011;42052;41.634;-0.946;2023-03-24T05:35:59;1.02;;;0.63;;
56171;SDS011;42052;41.634;-0.946;2023-03-24T05:38:45;0.50;;;0.50;;
56171;SDS011;42052;41.634;-0.946;2023-03-24T05:41:31;1.33;;;0.70;;
56171;SDS011;42052;41.634;-0.946;2023-03-24T05:44:18;1.00;;;0.60;;
56171;SDS011;42052;41.634;-0.946;2023-03-24T05:47:04;0.60;;;0.50;;
56171;SDS011;42052;41.634;-0.946;2023-03-24T05:49:51;1.55;;;0.52;;
56171;SDS011;42052;41.634;-0.946;2023-03-24T05:52:37;0.50;;;0.50;;
56171;SDS011;42052;41.634;-0.946;2023-03-24T05:55:23;0.60;;;0.50;;
56171;SDS011;42052;41.634;-0.946;2023-03-24T05:58:10;0.93;;;0.50;;
56171;SDS011;42052;41.634;-0.946;2023-03-24T06:00:56;2.03;;;0.60;;
56171;SDS011;42052;41.634;-0.946;2023-03-24T06:03:42;0.65;;;0.50;;
56171;SDS011;42052;41.634;-0.946;2023-03-24T06:06:29;0.75;;;0.60;;
56171;SDS011;42052;41.634;-0.946;2023-03-24T06:09:15;1.23;;;0.60;;
56171;SDS011;42052;41.634;-0.946;2023-03-24T06:12:02;0.90;;;0.50;;
56171;SDS011;42052;41.634;-0.946;2023-03-24T06:14:48;0.60;;;0.50;;
56171;SDS011;42052;41.634;-0.946;2023-03-24T06:17:35;0.93;;;0.52;;
56171;SDS011;42052;41.634;-0.946;2023-03-24T06:20:24;0.68;;;0.50;;
56171;SDS011;42052;41.634;-0.946;2023-03-24T06:23:10;1.10;;;0.55;;
56171;SDS011;42052;41.634;-0.946;2023-03-24T06:25:56;0.60;;;0.50;;
56171;SDS011;42052;41.634;-0.946;2023-03-24T06:28:43;0.90;;;0.50;;
56171;SDS011;42052;41.634;-0.946;2023-03-24T06:31:29;0.68;;;0.50;;
56171;SDS011;42052;41.634;-0.946;2023-03-24T06:34:17;0.82;;;0.50;;
56171;SDS011;42052;41.634;-0.946;2023-03-24T06:37:03;0.77;;;0.60;;
56171;SDS011;42052;41.634;-0.946;2023-03-24T06:39:49;1.00;;;0.60;;
56171;SDS011;42052;41.634;-0.946;2023-03-24T06:42:36;0.60;;;0.60;;
56171;SDS011;42052;41.634;-0.946;2023-03-24T06:45:22;1.08;;;0.52;;
56171;SDS011;42052;41.634;-0.946;2023-03-24T06:48:08;1.15;;;0.60;;
56171;SDS011;42052;41.634;-0.946;2023-03-24T06:50:54;1.60;;;0.50;;
56171;SDS011;42052;41.634;-0.946;2023-03-24T06:53:41;1.17;;;0.40;;
56171;SDS011;42052;41.634;-0.946;2023-03-24T06:56:29;0.55;;;0.50;;
56171;SDS011;42052;41.634;-0.946;2023-03-24T06:59:16;0.38;;;0.38;;
56171;SDS011;42052;41.634;-0.946;2023-03-24T07:02:02;0.65;;;0.47;;
56171;SDS011;42052;41.634;-0.946;2023-03-24T07:04:48;0.77;;;0.60;;
56171;SDS011;42052;41.634;-0.946;2023-03-24T07:07:34;0.70;;;0.50;;
56171;SDS011;42052;41.634;-0.946;2023-03-24T07:10:21;0.60;;;0.50;;
56171;SDS011;42052;41.634;-0.946;2023-03-24T07:13:07;1.73;;;0.60;;
56171;SDS011;42052;41.634;-0.946;2023-03-24T07:15:54;1.25;;;0.70;;
56171;SDS011;42052;41.634;-0.946;2023-03-24T07:18:40;0.63;;;0.50;;
56171;SDS011;42052;41.634;-0.946;2023-03-24T07:21:27;1.00;;;0.70;;
56171;SDS011;42052;41.634;-0.946;2023-03-24T07:24:13;1.65;;;0.63;;
56171;SDS011;42052;41.634;-0.946;2023-03-24T07:26:59;0.75;;;0.50;;
56171;SDS011;42052;41.634;-0.946;2023-03-24T07:29:46;0.75;;;0.40;;
56171;SDS011;42052;41.634;-0.946;2023-03-24T07:32:32;0.50;;;0.50;;
56171;SDS011;42052;41.634;-0.946;2023-03-24T07:35:19;1.10;;;0.70;;
56171;SDS011;42052;41.634;-0.946;2023-03-24T07:38:05;0.68;;;0.50;;
56171;SDS011;42052;41.634;-0.946;2023-03-24T07:40:51;0.50;;;0.40;;
56171;SDS011;42052;41.634;-0.946;2023-03-24T07:43:38;1.23;;;0.57;;
56171;SDS011;42052;41.634;-0.946;2023-03-24T07:46:24;1.58;;;0.50;;
56171;SDS011;42052;41.634;-0.946;2023-03-24T07:49:10;0.50;;;0.50;;
56171;SDS011;42052;41.634;-0.946;2023-03-24T07:51:56;1.90;;;0.65;;
56171;SDS011;42052;41.634;-0.946;2023-03-24T07:54:43;0.85;;;0.50;;
56171;SDS011;42052;41.634;-0.946;2023-03-24T07:57:29;1.90;;;0.45;;
56171;SDS011;42052;41.634;-0.946;2023-03-24T08:00:16;1.65;;;0.55;;
56171;SDS011;42052;41.634;-0.946;2023-03-24T08:03:04;0.93;;;0.50;;
56171;SDS011;42052;41.634;-0.946;2023-03-24T08:05:53;1.33;;;0.60;;
56171;SDS011;42052;41.634;-0.946;2023-03-24T08:08:40;2.67;;;0.63;;
56171;SDS011;42052;41.634;-0.946;2023-03-24T08:11:26;0.82;;;0.50;;
56171;SDS011;42052;41.634;-0.946;2023-03-24T08:14:12;0.85;;;0.57;;
56171;SDS011;42052;41.634;-0.946;2023-03-24T08:16:58;0.80;;;0.50;;
56171;SDS011;42052;41.634;-0.946;2023-03-24T08:19:44;1.15;;;0.50;;
56171;SDS011;42052;41.634;-0.946;2023-03-24T08:22:32;0.70;;;0.50;;
56171;SDS011;42052;41.634;-0.946;2023-03-24T08:25:19;1.15;;;0.60;;
56171;SDS011;42052;41.634;-0.946;2023-03-24T08:28:08;1.10;;;0.50;;
56171;SDS011;42052;41.634;-0.946;2023-03-24T08:30:54;0.70;;;0.43;;
56171;SDS011;42052;41.634;-0.946;2023-03-24T08:33:40;1.55;;;0.70;;
56171;SDS011;42052;41.634;-0.946;2023-03-24T08:36:27;1.30;;;0.60;;
56171;SDS011;42052;41.634;-0.946;2023-03-24T08:39:13;0.93;;;0.60;;
56171;SDS011;42052;41.634;-0.946;2023-03-24T08:42:00;0.95;;;0.60;;
56171;SDS011;42052;41.634;-0.946;2023-03-24T08:44:46;2.10;;;0.70;;
56171;SDS011;42052;41.634;-0.946;2023-03-24T08:47:32;0.80;;;0.50;;
56171;SDS011;42052;41.634;-0.946;2023-03-24T08:50:19;2.85;;;0.70;;
56171;SDS011;42052;41.634;-0.946;2023-03-24T08:53:09;1.25;;;0.60;;
56171;SDS011;42052;41.634;-0.946;2023-03-24T08:55:58;2.88;;;0.70;;
56171;SDS011;42052;41.634;-0.946;2023-03-24T08:58:44;1.60;;;0.70;;
56171;SDS011;42052;41.634;-0.946;2023-03-24T09:01:35;3.10;;;0.60;;
56171;SDS011;42052;41.634;-0.946;2023-03-24T09:04:21;2.00;;;0.70;;
56171;SDS011;42052;41.634;-0.946;2023-03-24T09:07:08;4.15;;;0.70;;
56171;SDS011;42052;41.634;-0.946;2023-03-24T09:09:54;2.58;;;0.52;;
56171;SDS011;42052;41.634;-0.946;2023-03-24T09:12:41;1.05;;;0.60;;
56171;SDS011;42052;41.634;-0.946;2023-03-24T09:15:28;2.40;;;0.70;;
56171;SDS011;42052;41.634;-0.946;2023-03-24T09:18:14;2.15;;;0.80;;
56171;SDS011;42052;41.634;-0.946;2023-03-24T09:21:01;1.77;;;0.70;;
56171;SDS011;42052;41.634;-0.946;2023-03-24T09:23:48;1.67;;;0.70;;
56171;SDS011;42052;41.634;-0.946;2023-03-24T09:26:34;2.78;;;0.55;;
56171;SDS011;42052;41.634;-0.946;2023-03-24T09:29:20;1.63;;;0.60;;
56171;SDS011;42052;41.634;-0.946;2023-03-24T09:32:06;1.48;;;0.70;;
56171;SDS011;42052;41.634;-0.946;2023-03-24T09:34:52;2.67;;;0.70;;
56171;SDS011;42052;41.634;-0.946;2023-03-24T09:37:39;1.02;;;0.60;;
56171;SDS011;42052;41.634;-0.946;2023-03-24T09:40:32;3.00;;;0.70;;
56171;SDS011;42052;41.634;-0.946;2023-03-24T09:46:13;0.90;;;0.50;;
56171;SDS011;42052;41.634;-0.946;2023-03-24T09:49:11;0.65;;;0.50;;
56171;SDS011;42052;41.634;-0.946;2023-03-24T09:52:11;2.67;;;0.77;;
56171;SDS011;42052;41.634;-0.946;2023-03-24T09:55:02;1.55;;;0.70;;
56171;SDS011;42052;41.634;-0.946;2023-03-24T09:57:49;2.25;;;0.63;;
56171;SDS011;42052;41.634;-0.946;2023-03-24T10:00:37;1.77;;;0.60;;
56171;SDS011;42052;41.634;-0.946;2023-03-24T10:03:23;1.10;;;0.50;;
56171;SDS011;42052;41.634;-0.946;2023-03-24T10:06:14;3.13;;;0.70;;
56171;SDS011;42052;41.634;-0.946;2023-03-24T10:20:53;1.02;;;0.63;;
56171;SDS011;42052;41.634;-0.946;2023-03-24T10:27:36;1.75;;;0.70;;
56171;SDS011;42052;41.634;-0.946;2023-03-24T10:30:34;1.38;;;0.60;;
56171;SDS011;42052;41.634;-0.946;2023-03-24T10:33:24;1.92;;;0.50;;
56171;SDS011;42052;41.634;-0.946;2023-03-24T10:36:12;0.82;;;0.60;;
56171;SDS011;42052;41.634;-0.946;2023-03-24T10:39:05;1.92;;;0.60;;
56171;SDS011;42052;41.634;-0.946;2023-03-24T10:41:59;2.45;;;0.60;;
56171;SDS011;42052;41.634;-0.946;2023-03-24T10:44:46;1.15;;;0.50;;
56171;SDS011;42052;41.634;-0.946;2023-03-24T10:47:34;1.42;;;0.50;;
56171;SDS011;42052;41.634;-0.946;2023-03-24T10:50:22;1.20;;;0.60;;
56171;SDS011;42052;41.634;-0.946;2023-03-24T10:53:15;1.17;;;0.50;;
56171;SDS011;42052;41.634;-0.946;2023-03-24T10:56:03;1.52;;;0.50;;
56171;SDS011;42052;41.634;-0.946;2023-03-24T10:58:50;0.68;;;0.50;;
56171;SDS011;42052;41.634;-0.946;2023-03-24T11:01:36;1.42;;;0.60;;
56171;SDS011;42052;41.634;-0.946;2023-03-24T11:04:22;0.55;;;0.40;;
56171;SDS011;42052;41.634;-0.946;2023-03-24T11:16:26;1.50;;;0.50;;
56171;SDS011;42052;41.634;-0.946;2023-03-24T11:22:02;1.10;;;0.60;;
56171;SDS011;42052;41.634;-0.946;2023-03-24T11:24:53;1.10;;;0.52;;
56171;SDS011;42052;41.634;-0.946;2023-03-24T11:27:41;0.80;;;0.50;;
56171;SDS011;42052;41.634;-0.946;2023-03-24T11:30:34;0.90;;;0.55;;
56171;SDS011;42052;41.634;-0.946;2023-03-24T11:33:33;2.03;;;0.52;;
56171;SDS011;42052;41.634;-0.946;2023-03-24T11:36:39;0.40;;;0.40;;
56171;SDS011;42052;41.634;-0.946;2023-03-24T11:39:29;1.15;;;0.45;;
56171;SDS011;42052;41.634;-0.946;2023-03-24T11:42:17;1.90;;;0.60;;
56171;SDS011;42052;41.634;-0.946;2023-03-24T11:45:18;1.30;;;0.52;;
56171;SDS011;42052;41.634;-0.946;2023-03-24T11:48:10;2.05;;;0.50;;
56171;SDS011;42052;41.634;-0.946;2023-03-24T11:51:27;0.35;;;0.30;;
56171;SDS011;42052;41.634;-0.946;2023-03-24T11:54:19;1.17;;;0.60;;
56171;SDS011;42052;41.634;-0.946;2023-03-24T11:57:10;1.90;;;0.70;;
56171;SDS011;42052;41.634;-0.946;2023-03-24T12:00:00;1.02;;;0.50;;
56171;SDS011;42052;41.634;-0.946;2023-03-24T12:03:00;0.70;;;0.50;;
56171;SDS011;42052;41.634;-0.946;2023-03-24T12:06:14;1.08;;;0.50;;
56171;SDS011;42052;41.634;-0.946;2023-03-24T12:09:12;0.80;;;0.50;;
56171;SDS011;42052;41.634;-0.946;2023-03-24T12:21:59;1.30;;;0.40;;
56171;SDS011;42052;41.634;-0.946;2023-03-24T12:24:41;1.30;;;0.47;;
56171;SDS011;42052;41.634;-0.946;2023-03-24T12:33:54;0.88;;;0.40;;
56171;SDS011;42052;41.634;-0.946;2023-03-24T12:42:58;0.68;;;0.47;;
56171;SDS011;42052;41.634;-0.946;2023-03-24T12:45:49;1.58;;;0.63;;
56171;SDS011;42052;41.634;-0.946;2023-03-24T12:48:46;0.50;;;0.40;;
56171;SDS011;42052;41.634;-0.946;2023-03-24T12:55:00;1.50;;;0.47;;
56171;SDS011;42052;41.634;-0.946;2023-03-24T12:57:50;0.70;;;0.40;;
56171;SDS011;42052;41.634;-0.946;2023-03-24T13:04:09;1.58;;;0.50;;
56171;SDS011;42052;41.634;-0.946;2023-03-24T13:07:08;0.90;;;0.50;;
56171;SDS011;42052;41.634;-0.946;2023-03-24T13:10:06;1.10;;;0.40;;
56171;SDS011;42052;41.634;-0.946;2023-03-24T13:13:17;0.68;;;0.47;;
56171;SDS011;42052;41.634;-0.946;2023-03-24T13:16:19;1.13;;;0.50;;
56171;SDS011;42052;41.634;-0.946;2023-03-24T13:19:13;0.80;;;0.60;;
56171;SDS011;42052;41.634;-0.946;2023-03-24T13:22:10;0.75;;;0.50;;
56171;SDS011;42052;41.634;-0.946;2023-03-24T13:25:00;0.85;;;0.52;;
56171;SDS011;42052;41.634;-0.946;2023-03-24T13:27:49;1.05;;;0.60;;
56171;SDS011;42052;41.634;-0.946;2023-03-24T13:30:41;1.08;;;0.60;;
56171;SDS011;42052;41.634;-0.946;2023-03-24T13:33:29;1.27;;;0.63;;
56171;SDS011;42052;41.634;-0.946;2023-03-24T13:39:06;0.82;;;0.50;;
56171;SDS011;42052;41.634;-0.946;2023-03-24T13:41:58;1.02;;;0.57;;
56171;SDS011;42052;41.634;-0.946;2023-03-24T13:44:46;0.98;;;0.57;;
56171;SDS011;42052;41.634;-0.946;2023-03-24T13:47:46;0.70;;;0.60;;
56171;SDS011;42052;41.634;-0.946;2023-03-24T13:54:10;0.88;;;0.50;;
56171;SDS011;42052;41.634;-0.946;2023-03-24T13:57:04;1.42;;;0.70;;
56171;SDS011;42052;41.634;-0.946;2023-03-24T14:06:00;0.80;;;0.60;;
56171;SDS011;42052;41.634;-0.946;2023-03-24T14:11:44;0.63;;;0.63;;
56171;SDS011;42052;41.634;-0.946;2023-03-24T14:14:36;1.35;;;0.70;;
56171;SDS011;42052;41.634;-0.946;2023-03-24T14:21:10;0.73;;;0.60;;
56171;SDS011;42052;41.634;-0.946;2023-03-24T14:23:56;1.92;;;0.80;;
56171;SDS011;42052;41.634;-0.946;2023-03-24T14:26:43;1.15;;;0.65;;
56171;SDS011;42052;41.634;-0.946;2023-03-24T14:32:40;1.15;;;0.60;;
56171;SDS011;42052;41.634;-0.946;2023-03-24T14:35:35;0.80;;;0.75;;
56171;SDS011;42052;41.634;-0.946;2023-03-24T14:38:26;1.90;;;0.70;;
56171;SDS011;42052;41.634;-0.946;2023-03-24T14:41:13;0.52;;;0.50;;
56171;SDS011;42052;41.634;-0.946;2023-03-24T14:44:01;0.85;;;0.60;;
56171;SDS011;42052;41.634;-0.946;2023-03-24T14:46:47;0.70;;;0.60;;
56171;SDS011;42052;41.634;-0.946;2023-03-24T14:49:36;1.05;;;0.73;;
56171;SDS011;42052;41.634;-0.946;2023-03-24T14:52:33;0.85;;;0.60;;
56171;SDS011;42052;41.634;-0.946;2023-03-24T14:55:25;1.45;;;0.88;;
56171;SDS011;42052;41.634;-0.946;2023-03-24T14:58:16;0.70;;;0.70;;
56171;SDS011;42052;41.634;-0.946;2023-03-24T15:01:08;1.52;;;0.65;;
56171;SDS011;42052;41.634;-0.946;2023-03-24T15:04:06;0.70;;;0.65;;
56171;SDS011;42052;41.634;-0.946;2023-03-24T15:06:52;1.67;;;0.80;;
56171;SDS011;42052;41.634;-0.946;2023-03-24T15:09:38;1.23;;;0.80;;
56171;SDS011;42052;41.634;-0.946;2023-03-24T15:12:34;1.85;;;0.80;;
56171;SDS011;42052;41.634;-0.946;2023-03-24T15:15:21;1.77;;;0.60;;
56171;SDS011;42052;41.634;-0.946;2023-03-24T15:18:14;1.40;;;0.73;;
56171;SDS011;42052;41.634;-0.946;2023-03-24T15:21:12;0.70;;;0.55;;
56171;SDS011;42052;41.634;-0.946;2023-03-24T15:27:24;1.38;;;0.77;;
56171;SDS011;42052;41.634;-0.946;2023-03-24T15:30:13;1.50;;;0.85;;
56171;SDS011;42052;41.634;-0.946;2023-03-24T15:33:00;0.90;;;0.70;;
56171;SDS011;42052;41.634;-0.946;2023-03-24T15:35:46;1.38;;;0.77;;
56171;SDS011;42052;41.634;-0.946;2023-03-24T15:38:44;0.80;;;0.60;;
56171;SDS011;42052;41.634;-0.946;2023-03-24T15:41:32;0.98;;;0.77;;
56171;SDS011;42052;41.634;-0.946;2023-03-24T15:44:19;0.63;;;0.63;;
56171;SDS011;42052;41.634;-0.946;2023-03-24T15:50:04;1.13;;;0.73;;
56171;SDS011;42052;41.634;-0.946;2023-03-24T15:53:01;1.30;;;0.80;;
56171;SDS011;42052;41.634;-0.946;2023-03-24T15:56:12;1.35;;;0.80;;
56171;SDS011;42052;41.634;-0.946;2023-03-24T16:01:48;0.90;;;0.60;;
56171;SDS011;42052;41.634;-0.946;2023-03-24T16:04:35;1.98;;;0.60;;
56171;SDS011;42052;41.634;-0.946;2023-03-24T16:07:24;0.90;;;0.70;;
56171;SDS011;42052;41.634;-0.946;2023-03-24T16:10:29;1.35;;;0.65;;
56171;SDS011;42052;41.634;-0.946;2023-03-24T16:13:27;0.98;;;0.60;;
56171;SDS011;42052;41.634;-0.946;2023-03-24T16:19:00;1.27;;;0.70;;
56171;SDS011;42052;41.634;-0.946;2023-03-24T16:21:46;0.70;;;0.50;;
56171;SDS011;42052;41.634;-0.946;2023-03-24T16:24:32;1.42;;;0.80;;
56171;SDS011;42052;41.634;-0.946;2023-03-24T16:27:18;1.13;;;0.50;;
56171;SDS011;42052;41.634;-0.946;2023-03-24T16:30:12;0.95;;;0.60;;
56171;SDS011;42052;41.634;-0.946;2023-03-24T16:33:03;1.25;;;0.60;;
56171;SDS011;42052;41.634;-0.946;2023-03-24T16:35:50;0.95;;;0.50;;
56171;SDS011;42052;41.634;-0.946;2023-03-24T16:38:36;0.55;;;0.55;;
56171;SDS011;42052;41.634;-0.946;2023-03-24T16:41:22;1.45;;;0.70;;
56171;SDS011;42052;41.634;-0.946;2023-03-24T16:44:09;0.93;;;0.60;;
56171;SDS011;42052;41.634;-0.946;2023-03-24T16:46:56;0.85;;;0.60;;
56171;SDS011;42052;41.634;-0.946;2023-03-24T16:49:42;1.00;;;0.68;;
56171;SDS011;42052;41.634;-0.946;2023-03-24T16:52:28;0.73;;;0.50;;
56171;SDS011;42052;41.634;-0.946;2023-03-24T16:55:14;0.93;;;0.60;;
56171;SDS011;42052;41.634;-0.946;2023-03-24T16:58:01;0.70;;;0.65;;
56171;SDS011;42052;41.634;-0.946;2023-03-24T17:00:47;1.23;;;0.65;;
56171;SDS011;42052;41.634;-0.946;2023-03-24T17:03:33;0.70;;;0.55;;
56171;SDS011;42052;41.634;-0.946;2023-03-24T17:06:20;0.80;;;0.70;;
56171;SDS011;42052;41.634;-0.946;2023-03-24T17:09:07;0.80;;;0.60;;
56171;SDS011;42052;41.634;-0.946;2023-03-24T17:11:55;1.55;;;0.75;;
56171;SDS011;42052;41.634;-0.946;2023-03-24T17:14:42;1.02;;;0.68;;
56171;SDS011;42052;41.634;-0.946;2023-03-24T17:17:28;1.13;;;0.70;;
56171;SDS011;42052;41.634;-0.946;2023-03-24T17:20:15;1.55;;;0.68;;
56171;SDS011;42052;41.634;-0.946;2023-03-24T17:23:01;1.08;;;0.70;;
56171;SDS011;42052;41.634;-0.946;2023-03-24T17:25:47;0.93;;;0.60;;
56171;SDS011;42052;41.634;-0.946;2023-03-24T17:28:34;0.88;;;0.60;;
56171;SDS011;42052;41.634;-0.946;2023-03-24T17:31:20;1.15;;;0.70;;
56171;SDS011;42052;41.634;-0.946;2023-03-24T17:34:08;1.35;;;0.70;;
56171;SDS011;42052;41.634;-0.946;2023-03-24T17:36:56;0.88;;;0.63;;
56171;SDS011;42052;41.634;-0.946;2023-03-24T17:39:43;1.65;;;0.73;;
56171;SDS011;42052;41.634;-0.946;2023-03-24T17:42:29;0.57;;;0.57;;
56171;SDS011;42052;41.634;-0.946;2023-03-24T17:45:16;1.13;;;0.70;;
56171;SDS011;42052;41.634;-0.946;2023-03-24T17:48:03;0.80;;;0.70;;
56171;SDS011;42052;41.634;-0.946;2023-03-24T17:50:49;0.80;;;0.60;;
56171;SDS011;42052;41.634;-0.946;2023-03-24T17:53:35;0.82;;;0.60;;
56171;SDS011;42052;41.634;-0.946;2023-03-24T17:56:22;0.63;;;0.57;;
56171;SDS011;42052;41.634;-0.946;2023-03-24T17:59:08;1.35;;;0.70;;
56171;SDS011;42052;41.634;-0.946;2023-03-24T18:01:54;1.60;;;0.63;;
56171;SDS011;42052;41.634;-0.946;2023-03-24T18:04:40;0.82;;;0.70;;
56171;SDS011;42052;41.634;-0.946;2023-03-24T18:07:26;0.60;;;0.50;;
56171;SDS011;42052;41.634;-0.946;2023-03-24T18:10:13;0.80;;;0.70;;
56171;SDS011;42052;41.634;-0.946;2023-03-24T18:12:59;1.40;;;0.60;;
56171;SDS011;42052;41.634;-0.946;2023-03-24T18:15:46;1.10;;;0.60;;
56171;SDS011;42052;41.634;-0.946;2023-03-24T18:18:32;1.17;;;0.70;;
56171;SDS011;42052;41.634;-0.946;2023-03-24T18:21:20;1.73;;;0.63;;
56171;SDS011;42052;41.634;-0.946;2023-03-24T18:24:07;0.63;;;0.60;;
56171;SDS011;42052;41.634;-0.946;2023-03-24T18:26:53;0.63;;;0.60;;
56171;SDS011;42052;41.634;-0.946;2023-03-24T18:29:39;0.98;;;0.70;;
56171;SDS011;42052;41.634;-0.946;2023-03-24T18:32:25;0.95;;;0.60;;
56171;SDS011;42052;41.634;-0.946;2023-03-24T18:35:12;0.65;;;0.50;;
56171;SDS011;42052;41.634;-0.946;2023-03-24T18:38:00;1.25;;;0.65;;
56171;SDS011;42052;41.634;-0.946;2023-03-24T18:40:55;1.25;;;0.60;;
56171;SDS011;42052;41.634;-0.946;2023-03-24T18:43:43;0.88;;;0.80;;
56171;SDS011;42052;41.634;-0.946;2023-03-24T18:46:32;0.93;;;0.68;;
56171;SDS011;42052;41.634;-0.946;2023-03-24T18:49:18;1.17;;;0.70;;
56171;SDS011;42052;41.634;-0.946;2023-03-24T18:52:04;0.60;;;0.50;;
56171;SDS011;42052;41.634;-0.946;2023-03-24T18:54:51;1.20;;;0.85;;
56171;SDS011;42052;41.634;-0.946;2023-03-24T18:57:38;1.00;;;0.55;;
56171;SDS011;42052;41.634;-0.946;2023-03-24T19:00:25;2.03;;;0.70;;
56171;SDS011;42052;41.634;-0.946;2023-03-24T19:03:12;1.08;;;0.68;;
56171;SDS011;42052;41.634;-0.946;2023-03-24T19:06:01;1.25;;;0.63;;
56171;SDS011;42052;41.634;-0.946;2023-03-24T19:08:51;1.08;;;0.63;;
56171;SDS011;42052;41.634;-0.946;2023-03-24T19:11:37;1.65;;;0.70;;
56171;SDS011;42052;41.634;-0.946;2023-03-24T19:14:24;1.88;;;0.70;;
56171;SDS011;42052;41.634;-0.946;2023-03-24T19:17:11;0.90;;;0.68;;
56171;SDS011;42052;41.634;-0.946;2023-03-24T19:19:57;0.98;;;0.60;;
56171;SDS011;42052;41.634;-0.946;2023-03-24T19:22:43;1.42;;;0.60;;